Time;durP1;ratioP1;P1;durP2;ratioP2;P2;SDS_P1;SDS_P2;PMS_P1;PMS_P2;Temp;Humidity;BMP_temperature;BMP_pressure;BME280_temperature;BME280_humidity;BME280_pressure;Samples;Min_cycle;Max_cycle;Signal;HPM_P1;HPM_P2
2021/12/31 00:02:16;;;;;;;7.55;4.22;;;;;;;;;;5099302;28;20057;-46
2021/12/31 00:04:42;;;;;;;5.43;4.00;;;;;;;;;;5106734;28;20475;-46
2021/12/31 00:07:09;;;;;;;7.50;5.10;;;;;;;;;;5106884;28;20053;-45
2021/12/31 00:09:35;;;;;;;8.90;5.35;;;;;;;;;;5088929;28;20030;-46
2021/12/31 00:12:04;;;;;;;9.63;5.63;;;;;;;;;;5093899;28;20270;-45
2021/12/31 00:14:31;;;;;;;8.75;5.28;;;;;;;;;;5085817;28;20051;-45
2021/12/31 00:16:57;;;;;;;8.05;4.63;;;;;;;;;;5085897;28;20102;-47
2021/12/31 00:19:25;;;;;;;6.03;4.50;;;;;;;;;;5067443;28;20566;-45
2021/12/31 00:21:52;;;;;;;6.18;4.53;;;;;;;;;;5094388;28;20398;-46
2021/12/31 00:24:19;;;;;;;5.40;4.05;;;;;;;;;;5106041;28;20027;-45
2021/12/31 00:26:46;;;;;;;5.63;4.03;;;;;;;;;;5083373;28;20049;-45
2021/12/31 00:29:13;;;;;;;4.97;3.92;;;;;;;;;;5103714;28;20055;-47
2021/12/31 00:31:39;;;;;;;3.85;3.20;;;;;;;;;;5071353;28;20040;-45
2021/12/31 00:34:05;;;;;;;5.57;3.40;;;;;;;;;;5088817;28;20364;-45
2021/12/31 00:36:40;;;;;;;3.97;3.35;;;;;;;;;;5101857;28;20051;-47
2021/12/31 00:39:07;;;;;;;3.67;3.08;;;;;;;;;;5083639;28;20028;-47
2021/12/31 00:41:33;;;;;;;3.08;2.67;;;;;;;;;;5097052;28;20920;-49
2021/12/31 00:43:59;;;;;;;3.63;3.13;;;;;;;;;;5087663;28;20628;-46
2021/12/31 00:46:25;;;;;;;2.95;2.42;;;;;;;;;;5087479;28;20024;-46
2021/12/31 00:48:51;;;;;;;3.08;2.60;;;;;;;;;;5087341;28;20051;-46
2021/12/31 00:51:17;;;;;;;3.08;2.75;;;;;;;;;;5101559;28;20495;-46
2021/12/31 00:53:43;;;;;;;2.70;2.50;;;;;;;;;;5107993;28;20118;-46
2021/12/31 00:56:09;;;;;;;3.03;2.40;;;;;;;;;;5107032;28;20499;-46
2021/12/31 00:58:35;;;;;;;2.92;2.40;;;;;;;;;;5089124;28;20491;-46
2021/12/31 01:01:01;;;;;;;2.60;2.40;;;;;;;;;;5102898;28;20023;-46
2021/12/31 01:03:27;;;;;;;2.85;2.40;;;;;;;;;;5105061;28;20055;-48
2021/12/31 01:05:53;;;;;;;3.10;2.80;;;;;;;;;;5107263;28;20403;-49
2021/12/31 01:08:19;;;;;;;2.80;2.53;;;;;;;;;;5106672;28;20113;-45
2021/12/31 01:10:45;;;;;;;3.05;2.60;;;;;;;;;;5094765;28;20453;-47
2021/12/31 01:13:19;;;;;;;3.15;2.75;;;;;;;;;;5086340;28;20024;-46
2021/12/31 01:15:46;;;;;;;2.50;2.30;;;;;;;;;;5087023;28;20415;-48
2021/12/31 01:20:40;;;;;;;2.28;2.08;;;;;;;;;;5097536;28;20055;-49
2021/12/31 01:23:08;;;;;;;2.30;2.10;;;;;;;;;;5106866;28;20043;-45
2021/12/31 01:25:35;;;;;;;3.00;2.50;;;;;;;;;;5107583;28;20031;-46
2021/12/31 01:28:01;;;;;;;2.33;2.13;;;;;;;;;;5090926;28;20027;-45
2021/12/31 01:30:27;;;;;;;2.55;2.35;;;;;;;;;;5085669;28;20519;-46
2021/12/31 01:32:55;;;;;;;2.50;2.30;;;;;;;;;;5086761;28;20092;-47
2021/12/31 01:35:21;;;;;;;2.50;2.28;;;;;;;;;;5086359;28;20402;-46
2021/12/31 01:37:47;;;;;;;2.35;2.13;;;;;;;;;;5086755;28;20080;-48
2021/12/31 01:40:13;;;;;;;2.88;2.63;;;;;;;;;;5085630;28;20111;-50
2021/12/31 01:42:40;;;;;;;2.08;1.88;;;;;;;;;;5086197;28;20023;-46
2021/12/31 01:45:08;;;;;;;2.35;2.10;;;;;;;;;;5087384;28;20016;-46
2021/12/31 01:47:45;;;;;;;1.92;1.73;;;;;;;;;;5086797;28;20047;-46
2021/12/31 01:50:11;;;;;;;1.92;1.75;;;;;;;;;;5095156;28;20030;-45
2021/12/31 01:52:40;;;;;;;2.30;2.10;;;;;;;;;;5106515;28;20027;-46
2021/12/31 01:55:09;;;;;;;2.05;1.85;;;;;;;;;;5107666;28;20099;-46
2021/12/31 01:57:35;;;;;;;1.95;1.80;;;;;;;;;;5094255;28;20031;-46
2021/12/31 02:00:01;;;;;;;2.38;2.17;;;;;;;;;;5094092;28;20067;-45
2021/12/31 02:02:27;;;;;;;2.33;2.13;;;;;;;;;;5106401;28;20016;-46
2021/12/31 02:04:54;;;;;;;2.53;2.15;;;;;;;;;;5106649;28;20055;-47
2021/12/31 02:07:20;;;;;;;2.72;2.30;;;;;;;;;;5104833;28;20032;-45
2021/12/31 02:09:50;;;;;;;2.63;2.17;;;;;;;;;;5098119;28;20016;-45
2021/12/31 02:12:19;;;;;;;1.98;1.80;;;;;;;;;;5085364;28;20016;-46
2021/12/31 02:14:45;;;;;;;2.67;2.05;;;;;;;;;;5086221;28;20487;-46
2021/12/31 02:17:11;;;;;;;2.15;1.85;;;;;;;;;;5084783;28;20385;-46
2021/12/31 02:19:38;;;;;;;2.25;2.05;;;;;;;;;;5098296;28;20111;-48
2021/12/31 02:22:04;;;;;;;2.22;2.03;;;;;;;;;;5090932;28;20032;-47
2021/12/31 02:24:31;;;;;;;2.25;2.05;;;;;;;;;;5071921;28;20698;-46
2021/12/31 02:26:58;;;;;;;2.40;2.20;;;;;;;;;;5089520;28;20051;-50
2021/12/31 02:29:25;;;;;;;2.33;2.13;;;;;;;;;;5088063;28;20085;-46
2021/12/31 02:31:53;;;;;;;2.40;2.05;;;;;;;;;;5090246;28;20537;-46
2021/12/31 02:34:19;;;;;;;2.92;2.30;;;;;;;;;;5106195;28;20028;-45
2021/12/31 02:36:46;;;;;;;2.78;2.42;;;;;;;;;;5110669;28;20084;-46
2021/12/31 02:39:12;;;;;;;3.10;2.40;;;;;;;;;;5104045;28;20536;-45
2021/12/31 02:41:38;;;;;;;2.17;1.92;;;;;;;;;;5089404;28;20077;-46
2021/12/31 02:44:04;;;;;;;3.03;2.30;;;;;;;;;;5090701;28;20115;-49
2021/12/31 02:46:30;;;;;;;3.30;2.60;;;;;;;;;;5089829;28;20032;-48
2021/12/31 02:48:57;;;;;;;3.10;2.25;;;;;;;;;;5088868;28;20024;-46
2021/12/31 02:51:25;;;;;;;2.50;2.30;;;;;;;;;;5107572;28;20032;-47
2021/12/31 02:53:55;;;;;;;2.65;2.35;;;;;;;;;;5110235;28;20506;-47
2021/12/31 02:56:22;;;;;;;3.47;2.50;;;;;;;;;;5107247;28;20098;-49
2021/12/31 02:58:49;;;;;;;3.10;2.50;;;;;;;;;;5088737;28;20031;-47
2021/12/31 03:01:15;;;;;;;2.58;2.35;;;;;;;;;;5089514;28;20104;-45
2021/12/31 03:03:42;;;;;;;3.60;2.70;;;;;;;;;;5089403;28;20032;-48
2021/12/31 03:06:08;;;;;;;3.20;2.60;;;;;;;;;;5089636;28;20077;-47
2021/12/31 03:08:36;;;;;;;3.08;2.40;;;;;;;;;;5089491;28;20123;-46
2021/12/31 03:11:04;;;;;;;4.25;3.13;;;;;;;;;;5108755;28;20051;-46
2021/12/31 03:13:30;;;;;;;2.97;2.67;;;;;;;;;;5088796;28;20035;-49
2021/12/31 03:15:58;;;;;;;3.13;2.20;;;;;;;;;;5071244;28;20027;-49
2021/12/31 03:18:24;;;;;;;3.60;2.63;;;;;;;;;;5086908;28;20024;-49
2021/12/31 03:21:10;;;;;;;3.45;2.10;;;;;;;;;;5088292;28;20035;-49
2021/12/31 03:23:36;;;;;;;2.95;2.10;;;;;;;;;;5089525;28;20020;-49
2021/12/31 03:26:03;;;;;;;1.77;1.45;;;;;;;;;;5089993;28;20115;-48
2021/12/31 03:28:29;;;;;;;2.58;2.15;;;;;;;;;;5088255;28;20096;-46
2021/12/31 03:30:55;;;;;;;2.65;2.28;;;;;;;;;;5087592;28;20028;-50
2021/12/31 03:33:22;;;;;;;2.50;2.30;;;;;;;;;;5088559;28;20026;-49
2021/12/31 03:35:48;;;;;;;3.13;2.35;;;;;;;;;;5089159;28;20042;-49
2021/12/31 03:38:15;;;;;;;2.40;2.20;;;;;;;;;;5102925;28;20098;-50
2021/12/31 03:40:41;;;;;;;2.22;2.00;;;;;;;;;;5107555;28;20095;-46
2021/12/31 03:43:08;;;;;;;2.63;2.20;;;;;;;;;;5091835;28;20024;-48
2021/12/31 03:45:34;;;;;;;3.40;2.17;;;;;;;;;;5089183;28;20067;-46
2021/12/31 03:48:00;;;;;;;2.10;1.80;;;;;;;;;;5088632;28;20051;-45
2021/12/31 03:50:26;;;;;;;2.38;1.90;;;;;;;;;;5087677;28;20541;-46
2021/12/31 03:52:53;;;;;;;2.40;1.80;;;;;;;;;;5088557;28;20511;-46
2021/12/31 03:55:19;;;;;;;1.48;1.33;;;;;;;;;;5088408;28;20518;-46
2021/12/31 03:57:45;;;;;;;1.38;1.27;;;;;;;;;;5088125;28;20028;-46
2021/12/31 04:00:11;;;;;;;1.60;1.50;;;;;;;;;;5095986;28;20024;-46
2021/12/31 04:02:37;;;;;;;2.10;1.52;;;;;;;;;;5108721;28;20433;-48
2021/12/31 04:05:04;;;;;;;2.40;1.63;;;;;;;;;;5109226;28;20020;-45
2021/12/31 04:07:30;;;;;;;1.65;1.38;;;;;;;;;;5108304;28;20036;-46
2021/12/31 04:09:56;;;;;;;1.42;1.33;;;;;;;;;;5107272;28;20019;-46
2021/12/31 04:12:22;;;;;;;2.90;1.40;;;;;;;;;;5097240;28;20024;-45
2021/12/31 04:14:48;;;;;;;2.20;1.67;;;;;;;;;;5088027;28;20495;-46
2021/12/31 04:17:14;;;;;;;1.83;1.50;;;;;;;;;;5094815;28;20548;-48
2021/12/31 04:19:42;;;;;;;1.58;1.40;;;;;;;;;;5088230;28;20645;-45
2021/12/31 04:22:08;;;;;;;2.00;1.40;;;;;;;;;;5108436;28;20023;-46
2021/12/31 04:27:10;;;;;;;1.45;1.30;;;;;;;;;;5099016;28;20068;-47
2021/12/31 04:29:36;;;;;;;1.60;1.48;;;;;;;;;;5087169;28;20030;-49
2021/12/31 04:32:03;;;;;;;1.90;1.42;;;;;;;;;;5107868;28;20039;-47
2021/12/31 04:34:29;;;;;;;1.50;1.20;;;;;;;;;;5107897;28;20022;-48
2021/12/31 04:36:55;;;;;;;2.13;1.63;;;;;;;;;;5108114;28;20084;-49
2021/12/31 04:39:21;;;;;;;1.58;1.48;;;;;;;;;;5107867;28;20012;-47
2021/12/31 04:41:47;;;;;;;1.30;1.20;;;;;;;;;;5087572;28;20060;-47
2021/12/31 04:44:13;;;;;;;1.98;1.70;;;;;;;;;;5086514;28;20103;-45
2021/12/31 04:46:39;;;;;;;2.03;1.52;;;;;;;;;;5087671;28;20032;-49
2021/12/31 04:49:09;;;;;;;2.05;1.70;;;;;;;;;;5088052;28;20028;-46
2021/12/31 04:51:35;;;;;;;1.67;1.58;;;;;;;;;;5086777;28;20040;-46
2021/12/31 04:54:01;;;;;;;1.55;1.45;;;;;;;;;;5086656;28;20065;-46
2021/12/31 04:56:28;;;;;;;2.25;1.80;;;;;;;;;;5086888;28;20599;-48
2021/12/31 04:58:54;;;;;;;2.10;1.88;;;;;;;;;;5086727;28;20016;-46
2021/12/31 05:01:21;;;;;;;2.70;1.90;;;;;;;;;;5078621;28;20521;-46
2021/12/31 05:03:50;;;;;;;2.20;1.90;;;;;;;;;;5107716;28;20055;-46
2021/12/31 05:06:16;;;;;;;2.05;1.85;;;;;;;;;;5107315;28;20063;-46
2021/12/31 05:08:43;;;;;;;3.65;2.55;;;;;;;;;;5107215;28;20493;-47
2021/12/31 05:11:09;;;;;;;3.15;2.38;;;;;;;;;;5096175;28;20028;-46
2021/12/31 05:13:35;;;;;;;4.00;2.80;;;;;;;;;;5100614;28;20080;-46
2021/12/31 05:16:03;;;;;;;2.58;2.38;;;;;;;;;;5107433;28;20027;-47
2021/12/31 05:18:30;;;;;;;5.03;2.40;;;;;;;;;;5106781;28;20028;-46
2021/12/31 05:20:56;;;;;;;2.45;2.13;;;;;;;;;;5104494;28;20038;-46
2021/12/31 05:23:22;;;;;;;2.70;2.20;;;;;;;;;;5105036;28;20020;-46
2021/12/31 05:25:48;;;;;;;2.67;2.10;;;;;;;;;;5086874;28;20035;-46
2021/12/31 05:28:14;;;;;;;2.20;2.00;;;;;;;;;;5084584;28;20020;-46
2021/12/31 05:30:41;;;;;;;3.05;2.28;;;;;;;;;;5086926;28;20032;-46
2021/12/31 05:33:07;;;;;;;2.83;2.20;;;;;;;;;;5086921;28;20484;-49
2021/12/31 05:35:33;;;;;;;2.78;2.05;;;;;;;;;;5085134;28;20605;-46
2021/12/31 05:37:59;;;;;;;2.92;2.03;;;;;;;;;;5085350;28;20423;-47
2021/12/31 05:40:25;;;;;;;2.15;1.88;;;;;;;;;;5066924;28;20475;-48
2021/12/31 05:42:51;;;;;;;2.42;2.17;;;;;;;;;;5086123;28;20670;-45
2021/12/31 05:45:17;;;;;;;2.65;2.30;;;;;;;;;;5086485;28;20028;-46
2021/12/31 05:47:44;;;;;;;3.78;2.28;;;;;;;;;;5096940;28;20031;-46
2021/12/31 05:50:27;;;;;;;3.35;2.35;;;;;;;;;;5105328;28;20036;-47
2021/12/31 05:52:54;;;;;;;3.28;2.30;;;;;;;;;;5106836;28;20076;-47
2021/12/31 05:55:20;;;;;;;2.53;2.22;;;;;;;;;;5106234;28;20096;-47
2021/12/31 05:57:46;;;;;;;2.22;1.95;;;;;;;;;;5092462;28;20024;-48
2021/12/31 06:00:12;;;;;;;3.00;2.15;;;;;;;;;;5084293;28;20486;-46
2021/12/31 06:02:38;;;;;;;2.30;1.92;;;;;;;;;;5086709;28;20031;-48
2021/12/31 06:05:04;;;;;;;2.92;2.33;;;;;;;;;;5085368;28;20024;-46
2021/12/31 06:07:30;;;;;;;2.47;2.00;;;;;;;;;;5085859;28;20038;-48
2021/12/31 06:09:56;;;;;;;3.08;2.17;;;;;;;;;;5086443;28;20107;-46
2021/12/31 06:12:26;;;;;;;2.72;1.98;;;;;;;;;;5085384;28;20562;-46
2021/12/31 06:14:54;;;;;;;2.05;1.80;;;;;;;;;;5086068;28;20468;-46
2021/12/31 06:17:26;;;;;;;2.45;1.95;;;;;;;;;;5084811;28;20252;-47
2021/12/31 06:19:53;;;;;;;2.47;1.73;;;;;;;;;;5086369;28;20016;-47
2021/12/31 06:22:19;;;;;;;1.52;1.40;;;;;;;;;;5085772;28;20495;-48
2021/12/31 06:24:45;;;;;;;1.55;1.30;;;;;;;;;;5095160;28;20432;-46
2021/12/31 06:27:11;;;;;;;1.30;1.20;;;;;;;;;;5094649;28;20036;-48
2021/12/31 06:29:37;;;;;;;1.40;1.30;;;;;;;;;;5086537;28;20387;-47
2021/12/31 06:32:03;;;;;;;1.60;1.40;;;;;;;;;;5100462;28;20384;-45
2021/12/31 06:34:30;;;;;;;1.30;1.20;;;;;;;;;;5106121;28;20115;-47
2021/12/31 06:36:56;;;;;;;2.53;1.17;;;;;;;;;;5106485;28;20062;-49
2021/12/31 06:39:23;;;;;;;1.67;1.40;;;;;;;;;;5096248;28;20375;-46
2021/12/31 06:41:49;;;;;;;1.20;1.10;;;;;;;;;;5084743;28;20052;-49
2021/12/31 06:44:16;;;;;;;1.20;1.10;;;;;;;;;;5085761;28;20553;-49
2021/12/31 06:46:42;;;;;;;1.50;1.10;;;;;;;;;;5085140;28;20104;-46
2021/12/31 06:49:08;;;;;;;1.20;1.10;;;;;;;;;;5091755;28;20758;-47
2021/12/31 06:51:34;;;;;;;2.15;1.58;;;;;;;;;;5083248;28;20031;-47
2021/12/31 06:54:00;;;;;;;1.70;1.60;;;;;;;;;;5092435;28;20593;-46
2021/12/31 06:56:26;;;;;;;1.90;1.67;;;;;;;;;;5098885;28;20028;-47
2021/12/31 06:58:52;;;;;;;2.05;1.50;;;;;;;;;;5098214;28;20019;-47
2021/12/31 07:01:18;;;;;;;1.50;1.30;;;;;;;;;;5106287;28;20881;-50
2021/12/31 07:03:44;;;;;;;1.33;1.23;;;;;;;;;;5103371;28;20076;-47
2021/12/31 07:06:10;;;;;;;1.20;1.10;;;;;;;;;;5101426;28;20032;-46
2021/12/31 07:08:38;;;;;;;1.58;1.33;;;;;;;;;;5089314;28;20571;-46
2021/12/31 07:11:04;;;;;;;1.23;1.13;;;;;;;;;;5089675;28;20106;-48
2021/12/31 07:13:30;;;;;;;1.67;1.33;;;;;;;;;;5088703;28;20032;-48
2021/12/31 07:15:56;;;;;;;1.45;1.20;;;;;;;;;;5091431;28;20032;-49
2021/12/31 07:18:23;;;;;;;1.10;1.00;;;;;;;;;;5082847;28;20028;-46
2021/12/31 07:20:49;;;;;;;1.20;0.95;;;;;;;;;;5099470;28;20028;-48
2021/12/31 07:23:17;;;;;;;1.45;1.17;;;;;;;;;;5100220;28;20083;-47
2021/12/31 07:25:43;;;;;;;1.05;0.95;;;;;;;;;;5109427;28;20088;-48
2021/12/31 07:28:10;;;;;;;1.10;1.05;;;;;;;;;;5091837;28;20088;-49
2021/12/31 07:30:36;;;;;;;1.20;1.10;;;;;;;;;;5088246;28;20460;-47
2021/12/31 07:33:03;;;;;;;1.60;1.25;;;;;;;;;;5095533;28;20027;-49
2021/12/31 07:35:29;;;;;;;1.40;1.23;;;;;;;;;;5109077;28;20027;-50
2021/12/31 07:37:56;;;;;;;1.45;1.15;;;;;;;;;;5109623;28;20027;-49
2021/12/31 07:40:37;;;;;;;1.10;1.00;;;;;;;;;;5099810;28;20058;-50
2021/12/31 07:43:04;;;;;;;1.00;0.95;;;;;;;;;;5087768;28;20541;-51
2021/12/31 07:45:30;;;;;;;1.35;1.25;;;;;;;;;;5088919;28;20541;-51
2021/12/31 07:47:56;;;;;;;1.52;1.30;;;;;;;;;;5099269;28;20039;-50
2021/12/31 07:50:22;;;;;;;2.25;1.52;;;;;;;;;;5100993;28;20039;-49
2021/12/31 07:52:48;;;;;;;1.25;1.10;;;;;;;;;;5089617;28;20365;-48
2021/12/31 07:55:14;;;;;;;1.95;1.48;;;;;;;;;;5070434;28;20579;-47
2021/12/31 07:57:40;;;;;;;1.70;1.50;;;;;;;;;;5087558;28;20028;-51
2021/12/31 08:00:07;;;;;;;1.58;1.33;;;;;;;;;;5086723;28;20024;-48
2021/12/31 08:02:33;;;;;;;2.95;2.10;;;;;;;;;;5093607;28;20886;-47
2021/12/31 08:04:59;;;;;;;1.92;1.63;;;;;;;;;;5109166;28;20038;-46
2021/12/31 08:07:25;;;;;;;2.92;2.05;;;;;;;;;;5095823;28;20028;-47
2021/12/31 08:09:51;;;;;;;3.22;2.38;;;;;;;;;;5088034;28;20236;-47
2021/12/31 08:12:17;;;;;;;5.80;3.78;;;;;;;;;;5070924;28;20036;-49
2021/12/31 08:14:43;;;;;;;5.80;3.63;;;;;;;;;;5086879;28;20028;-46
2021/12/31 08:17:09;;;;;;;19.85;11.80;;;;;;;;;;5086402;28;20031;-47
2021/12/31 08:19:35;;;;;;;18.10;10.98;;;;;;;;;;5095773;28;20096;-48
2021/12/31 08:22:02;;;;;;;13.35;8.38;;;;;;;;;;5087310;28;20031;-47
2021/12/31 08:24:28;;;;;;;12.60;8.35;;;;;;;;;;5087975;28;20113;-46
2021/12/31 08:26:54;;;;;;;9.18;6.22;;;;;;;;;;5085256;28;20416;-47
2021/12/31 08:29:20;;;;;;;8.57;5.72;;;;;;;;;;5100602;28;20428;-47
2021/12/31 08:31:46;;;;;;;7.22;5.40;;;;;;;;;;5106049;28;20798;-46
2021/12/31 08:34:12;;;;;;;6.75;4.82;;;;;;;;;;5108325;28;20409;-46
2021/12/31 08:36:38;;;;;;;6.30;4.60;;;;;;;;;;5099710;28;20020;-50
2021/12/31 08:39:07;;;;;;;5.93;4.32;;;;;;;;;;5087821;28;20027;-48
2021/12/31 08:41:33;;;;;;;4.47;3.70;;;;;;;;;;5086860;28;20074;-46
2021/12/31 08:43:59;;;;;;;4.38;3.40;;;;;;;;;;5086975;28;20518;-46
2021/12/31 08:46:25;;;;;;;4.03;3.13;;;;;;;;;;5087082;28;20406;-47
2021/12/31 08:48:52;;;;;;;5.00;3.22;;;;;;;;;;5084402;28;20737;-47
2021/12/31 08:51:18;;;;;;;3.83;2.95;;;;;;;;;;5084833;28;20486;-46
2021/12/31 08:53:44;;;;;;;3.65;2.90;;;;;;;;;;5085863;28;20041;-47
2021/12/31 08:56:10;;;;;;;3.70;2.60;;;;;;;;;;5086987;28;20028;-44
2021/12/31 08:58:36;;;;;;;3.25;2.58;;;;;;;;;;5086588;28;20024;-46
2021/12/31 09:01:03;;;;;;;3.13;2.30;;;;;;;;;;5084491;28;20509;-50
2021/12/31 09:03:29;;;;;;;2.72;2.08;;;;;;;;;;5086673;28;20038;-48
2021/12/31 09:05:55;;;;;;;2.60;2.00;;;;;;;;;;5085714;28;20042;-48
2021/12/31 09:08:23;;;;;;;2.75;2.15;;;;;;;;;;5077513;28;20058;-46
2021/12/31 09:10:50;;;;;;;2.42;2.17;;;;;;;;;;5085865;28;20453;-46
2021/12/31 09:13:16;;;;;;;2.70;2.25;;;;;;;;;;5090315;28;20054;-46
2021/12/31 09:15:43;;;;;;;2.55;2.15;;;;;;;;;;5092189;28;20048;-46
2021/12/31 09:18:09;;;;;;;2.92;2.33;;;;;;;;;;5079121;28;20030;-47
2021/12/31 09:20:35;;;;;;;4.10;3.00;;;;;;;;;;5088347;28;20035;-45
2021/12/31 09:23:02;;;;;;;3.15;2.50;;;;;;;;;;5099195;28;20024;-46
2021/12/31 09:25:28;;;;;;;3.00;2.42;;;;;;;;;;5090302;28;20032;-49
2021/12/31 09:27:54;;;;;;;2.78;2.30;;;;;;;;;;5092927;28;20458;-49
2021/12/31 09:30:20;;;;;;;2.47;2.17;;;;;;;;;;5090904;28;20024;-46
2021/12/31 09:32:46;;;;;;;2.70;2.08;;;;;;;;;;5103554;28;20509;-45
2021/12/31 09:35:12;;;;;;;5.00;3.13;;;;;;;;;;5101428;28;20031;-46
2021/12/31 09:37:39;;;;;;;5.57;3.70;;;;;;;;;;5084876;28;20028;-46
2021/12/31 09:40:05;;;;;;;5.65;3.95;;;;;;;;;;5082474;28;20028;-45
2021/12/31 09:42:31;;;;;;;5.43;3.92;;;;;;;;;;5086845;28;20059;-46
2021/12/31 09:44:58;;;;;;;5.72;4.00;;;;;;;;;;5085829;28;20035;-46
2021/12/31 09:47:24;;;;;;;6.00;3.90;;;;;;;;;;5085262;28;20039;-48
2021/12/31 09:49:50;;;;;;;4.40;3.00;;;;;;;;;;5073513;28;20040;-46
2021/12/31 09:52:17;;;;;;;4.57;3.17;;;;;;;;;;5086946;28;20381;-47
2021/12/31 09:54:47;;;;;;;3.55;2.63;;;;;;;;;;5085216;28;20032;-47
2021/12/31 09:57:13;;;;;;;4.88;3.05;;;;;;;;;;5086802;28;20478;-46
2021/12/31 09:59:41;;;;;;;2.72;2.42;;;;;;;;;;5086068;28;20046;-47
2021/12/31 10:02:09;;;;;;;4.32;3.13;;;;;;;;;;5068174;28;20037;-48
2021/12/31 10:04:52;;;;;;;3.13;2.65;;;;;;;;;;5089403;28;20286;-47
2021/12/31 10:07:21;;;;;;;3.45;2.97;;;;;;;;;;5079016;28;20071;-49
2021/12/31 10:10:07;;;;;;;3.30;2.78;;;;;;;;;;5089460;28;20433;-49
2021/12/31 10:12:45;;;;;;;3.17;2.42;;;;;;;;;;5088006;28;20042;-49
2021/12/31 10:15:11;;;;;;;2.70;2.40;;;;;;;;;;5099280;28;20544;-47
2021/12/31 10:17:37;;;;;;;3.67;2.97;;;;;;;;;;5075886;28;20021;-47
2021/12/31 10:20:04;;;;;;;3.00;2.70;;;;;;;;;;5086201;28;20031;-50
2021/12/31 10:22:31;;;;;;;3.63;2.90;;;;;;;;;;5102661;28;20032;-49
2021/12/31 10:24:58;;;;;;;3.95;2.90;;;;;;;;;;5097597;28;20048;-46
2021/12/31 10:27:25;;;;;;;3.58;2.80;;;;;;;;;;5086411;28;20043;-47
2021/12/31 10:29:56;;;;;;;3.63;2.60;;;;;;;;;;5087075;28;20035;-48
2021/12/31 10:32:23;;;;;;;3.67;2.40;;;;;;;;;;5087010;28;20028;-47
2021/12/31 10:34:49;;;;;;;2.92;2.40;;;;;;;;;;5086817;28;20047;-46
2021/12/31 10:37:17;;;;;;;2.03;1.80;;;;;;;;;;5098780;28;20031;-48
2021/12/31 10:39:44;;;;;;;2.65;2.25;;;;;;;;;;5107683;28;20027;-49
2021/12/31 10:42:12;;;;;;;2.08;1.88;;;;;;;;;;5092946;28;20613;-49
2021/12/31 10:44:41;;;;;;;2.63;2.30;;;;;;;;;;5090210;28;20024;-50
2021/12/31 10:47:08;;;;;;;3.00;2.30;;;;;;;;;;5079145;28;20033;-45
2021/12/31 10:49:36;;;;;;;2.83;2.45;;;;;;;;;;5072931;28;20475;-47
2021/12/31 10:52:05;;;;;;;2.85;2.28;;;;;;;;;;5086345;28;20111;-50
2021/12/31 10:54:37;;;;;;;3.80;2.67;;;;;;;;;;5090911;28;20489;-50
2021/12/31 10:57:04;;;;;;;3.20;2.38;;;;;;;;;;5090589;28;20035;-49
2021/12/31 10:59:36;;;;;;;2.50;2.10;;;;;;;;;;5094289;28;20396;-48
2021/12/31 11:02:03;;;;;;;2.00;1.80;;;;;;;;;;5090991;28;20016;-49
2021/12/31 11:04:31;;;;;;;2.30;2.10;;;;;;;;;;5090186;28;20039;-48
2021/12/31 11:06:57;;;;;;;1.80;1.63;;;;;;;;;;5087631;28;20107;-48
2021/12/31 11:09:24;;;;;;;1.70;1.60;;;;;;;;;;5089414;28;20572;-48
2021/12/31 11:11:52;;;;;;;2.10;1.60;;;;;;;;;;5089033;28;20073;-48
2021/12/31 11:14:18;;;;;;;2.38;1.88;;;;;;;;;;5088808;28;20487;-47
2021/12/31 11:16:44;;;;;;;1.50;1.30;;;;;;;;;;5089288;28;20470;-46
2021/12/31 11:19:12;;;;;;;2.10;1.65;;;;;;;;;;5076232;28;20574;-46
2021/12/31 11:21:38;;;;;;;1.70;1.50;;;;;;;;;;5087828;28;20055;-46
2021/12/31 11:24:23;;;;;;;2.20;1.70;;;;;;;;;;5101830;28;20034;-46
2021/12/31 11:26:49;;;;;;;2.17;1.83;;;;;;;;;;5104483;28;20024;-47
2021/12/31 11:29:15;;;;;;;2.08;1.60;;;;;;;;;;5090166;28;20080;-50
2021/12/31 11:31:42;;;;;;;1.42;1.33;;;;;;;;;;5088443;28;20457;-46
2021/12/31 11:34:12;;;;;;;1.42;1.33;;;;;;;;;;5095050;28;20479;-46
2021/12/31 11:36:42;;;;;;;1.45;1.33;;;;;;;;;;5101309;28;20115;-47
2021/12/31 11:39:15;;;;;;;1.25;1.10;;;;;;;;;;5088115;28;20024;-46
2021/12/31 11:41:41;;;;;;;1.58;1.48;;;;;;;;;;5089026;28;20032;-46
2021/12/31 11:44:08;;;;;;;1.58;1.48;;;;;;;;;;5086141;28;20063;-50
2021/12/31 11:46:35;;;;;;;1.30;1.20;;;;;;;;;;5087416;28;20029;-49
2021/12/31 11:49:02;;;;;;;1.98;1.45;;;;;;;;;;5087992;28;20031;-49
2021/12/31 11:51:33;;;;;;;1.73;1.23;;;;;;;;;;5094550;28;20111;-47
2021/12/31 11:53:59;;;;;;;1.58;1.40;;;;;;;;;;5089303;28;20034;-47
2021/12/31 11:56:37;;;;;;;1.40;1.20;;;;;;;;;;5093785;28;20277;-50
2021/12/31 11:59:09;;;;;;;1.38;1.27;;;;;;;;;;5089422;28;20479;-47
2021/12/31 12:01:38;;;;;;;1.33;0.98;;;;;;;;;;5078312;28;20031;-48
2021/12/31 12:04:22;;;;;;;2.05;1.20;;;;;;;;;;5085286;28;20032;-50
2021/12/31 12:06:48;;;;;;;;;;;;;;;;;;5088812;28;20051;-47
2021/12/31 12:09:14;;;;;;;1.48;1.20;;;;;;;;;;5088171;28;19912;-50
2021/12/31 12:11:59;;;;;;;1.20;1.10;;;;;;;;;;5088099;28;20173;-47
2021/12/31 12:14:28;;;;;;;1.30;1.02;;;;;;;;;;5094709;28;20043;-52
2021/12/31 12:16:57;;;;;;;1.20;1.10;;;;;;;;;;5076229;28;20563;-46
2021/12/31 12:19:23;;;;;;;1.48;1.30;;;;;;;;;;5091674;28;20031;-48
2021/12/31 12:21:53;;;;;;;1.13;0.82;;;;;;;;;;5087550;28;20095;-50
2021/12/31 12:24:25;;;;;;;1.02;0.90;;;;;;;;;;5085402;28;20124;-48
2021/12/31 12:26:52;;;;;;;1.45;1.27;;;;;;;;;;5088366;28;20028;-48
2021/12/31 12:29:25;;;;;;;1.20;1.10;;;;;;;;;;5087070;28;20043;-47
2021/12/31 12:32:07;;;;;;;1.10;1.00;;;;;;;;;;5096773;28;20019;-46
2021/12/31 12:34:33;;;;;;;1.30;1.10;;;;;;;;;;5104026;28;20690;-48
2021/12/31 12:36:59;;;;;;;1.02;0.90;;;;;;;;;;5083925;28;20028;-47
2021/12/31 12:39:25;;;;;;;1.35;1.05;;;;;;;;;;5079713;28;20025;-50
2021/12/31 12:41:51;;;;;;;1.13;1.00;;;;;;;;;;5083207;28;20441;-46
2021/12/31 12:44:17;;;;;;;0.95;0.88;;;;;;;;;;5088173;28;20024;-48
2021/12/31 12:46:57;;;;;;;1.17;1.08;;;;;;;;;;5086343;28;20085;-48
2021/12/31 12:49:27;;;;;;;1.20;1.10;;;;;;;;;;5067239;28;20499;-46
2021/12/31 12:51:55;;;;;;;1.92;1.33;;;;;;;;;;5073615;28;20029;-47
2021/12/31 12:54:22;;;;;;;1.80;1.48;;;;;;;;;;5080900;28;20027;-47
2021/12/31 12:56:49;;;;;;;1.60;1.50;;;;;;;;;;5091945;28;20064;-49
2021/12/31 12:59:22;;;;;;;1.73;1.33;;;;;;;;;;5101891;28;20123;-49
2021/12/31 13:01:48;;;;;;;1.80;1.48;;;;;;;;;;5092089;28;20487;-47
2021/12/31 13:04:17;;;;;;;1.48;1.30;;;;;;;;;;5084121;28;20024;-47
2021/12/31 13:06:44;;;;;;;1.95;1.58;;;;;;;;;;5069994;28;20033;-48
2021/12/31 13:09:13;;;;;;;1.80;1.70;;;;;;;;;;5074778;28;20043;-46
2021/12/31 13:11:41;;;;;;;1.77;1.60;;;;;;;;;;5086909;28;20116;-47
2021/12/31 13:14:12;;;;;;;1.70;1.60;;;;;;;;;;5087134;28;20102;-48
2021/12/31 13:16:38;;;;;;;2.25;1.92;;;;;;;;;;5086693;28;20020;-50
2021/12/31 13:19:08;;;;;;;2.70;2.17;;;;;;;;;;5086407;28;20020;-50
2021/12/31 13:21:35;;;;;;;2.40;2.20;;;;;;;;;;5098075;28;20024;-47
2021/12/31 13:24:01;;;;;;;2.40;2.20;;;;;;;;;;5074256;28;20038;-46
2021/12/31 13:26:29;;;;;;;2.30;2.10;;;;;;;;;;5084538;28;20106;-46
2021/12/31 13:28:57;;;;;;;2.38;2.08;;;;;;;;;;5086660;28;20039;-47
2021/12/31 13:31:37;;;;;;;3.13;2.45;;;;;;;;;;5084857;28;20654;-46
2021/12/31 13:34:11;;;;;;;2.60;2.17;;;;;;;;;;5076997;28;20031;-49
2021/12/31 13:36:46;;;;;;;2.97;2.50;;;;;;;;;;5087663;28;20059;-46
2021/12/31 13:39:13;;;;;;;2.35;2.13;;;;;;;;;;5087970;28;20020;-47
2021/12/31 13:41:47;;;;;;;3.00;2.55;;;;;;;;;;5086226;28;20103;-47
2021/12/31 13:44:14;;;;;;;3.42;2.80;;;;;;;;;;5087757;28;20055;-48
2021/12/31 13:46:42;;;;;;;3.35;2.90;;;;;;;;;;5087428;28;20085;-46
2021/12/31 13:49:12;;;;;;;3.80;2.53;;;;;;;;;;5083640;28;20086;-47
2021/12/31 13:51:39;;;;;;;2.67;2.45;;;;;;;;;;5084795;28;20032;-46
2021/12/31 13:54:06;;;;;;;2.92;2.63;;;;;;;;;;5087163;28;20117;-46
2021/12/31 13:56:37;;;;;;;4.47;3.15;;;;;;;;;;5087309;28;20069;-46
2021/12/31 13:59:18;;;;;;;2.28;2.08;;;;;;;;;;5088215;28;20091;-50
2021/12/31 14:02:03;;;;;;;2.85;2.42;;;;;;;;;;5098853;28;20032;-50
2021/12/31 14:04:29;;;;;;;3.13;2.25;;;;;;;;;;5102925;28;20027;-49
2021/12/31 14:07:01;;;;;;;2.63;2.35;;;;;;;;;;5107776;28;20513;-50
2021/12/31 14:09:27;;;;;;;2.65;2.45;;;;;;;;;;5101525;28;20124;-48
2021/12/31 14:11:56;;;;;;;2.58;2.38;;;;;;;;;;5089306;28;20367;-48
2021/12/31 14:14:22;;;;;;;2.50;2.28;;;;;;;;;;5087113;28;20028;-51
2021/12/31 14:16:48;;;;;;;2.70;2.50;;;;;;;;;;5092087;28;20527;-47
2021/12/31 14:19:15;;;;;;;3.10;2.80;;;;;;;;;;5091032;28;20020;-47
2021/12/31 14:21:41;;;;;;;3.88;3.15;;;;;;;;;;5098108;28;20024;-50
2021/12/31 14:24:07;;;;;;;4.00;3.20;;;;;;;;;;5096009;28;20130;-47
2021/12/31 14:26:36;;;;;;;2.97;2.65;;;;;;;;;;5109816;28;20490;-48
2021/12/31 14:29:03;;;;;;;3.72;3.00;;;;;;;;;;5094495;28;20020;-46
2021/12/31 14:31:29;;;;;;;3.42;3.13;;;;;;;;;;5088719;28;20457;-46
2021/12/31 14:33:55;;;;;;;3.95;3.40;;;;;;;;;;5093993;28;20052;-48
2021/12/31 14:36:23;;;;;;;4.63;3.78;;;;;;;;;;5093317;28;20486;-47
2021/12/31 14:38:49;;;;;;;4.22;3.55;;;;;;;;;;5092592;28;20067;-47
2021/12/31 14:41:21;;;;;;;3.65;3.35;;;;;;;;;;5091110;28;20028;-51
2021/12/31 14:43:53;;;;;;;5.00;4.07;;;;;;;;;;5092905;28;20043;-48
2021/12/31 14:46:19;;;;;;;4.47;3.67;;;;;;;;;;5091250;28;20081;-46
2021/12/31 14:48:45;;;;;;;4.45;4.05;;;;;;;;;;5093680;28;20038;-48
2021/12/31 14:51:11;;;;;;;4.28;3.88;;;;;;;;;;5088508;28;20075;-49